Lake Holcombe, Wisconsin
Current Conditions -  °F | °C
As of 8:15 AM on Saturday 22 Nov 2014 (Local Time) from KY23 Reporting Station
Haze Haze  
Wind Chill: 29°   Ceiling: 600
Heat Index: 34°   Visibility: 3mi
Dew Point: 32°   Wind: 6mph
Humidity: 93%   Direction: 190°S
Pressure: 29.78"   Gusts: NA
Location:  45.2521°N, 91.2394°W
Report Text: KY23 221415Z AUTO 19005KT 3SM BR OVC006 01/00 A2978 RMK AO2 T00120002
Loading
Personal Weather Stations






























Interactive Weather Map New forecast layout! Learn more

10-Day Weather Forecast

Advertisements
Track Severe Weather on mobile